createdAt,value
2019-04-22T00:02:26.475Z,96792.13
2019-04-22T00:05:11.210Z,96789.98
2019-04-22T00:08:00.423Z,96788.86
2019-04-22T00:10:26.161Z,96779.64
2019-04-22T00:13:01.292Z,96779.81
2019-04-22T00:15:27.206Z,96777.43
2019-04-22T00:18:07.483Z,96764.34
2019-04-22T00:20:35.349Z,96765.33
2019-04-22T00:23:05.142Z,96762.77
2019-04-22T00:25:43.908Z,96762.02
2019-04-22T00:28:08.555Z,96765.54
2019-04-22T00:30:44.925Z,96757.26
2019-04-22T00:33:18.687Z,96757.47
2019-04-22T00:35:49.352Z,96751.81
2019-04-22T00:38:23.822Z,96747.70
2019-04-22T00:40:56.321Z,96762.66
2019-04-22T00:43:24.411Z,96758.87
2019-04-22T00:45:59.093Z,96744.42
2019-04-22T00:48:30.537Z,96742.41
2019-04-22T00:53:36.721Z,96735.61
2019-04-22T01:01:14.310Z,96735.12
2019-04-22T01:06:17.408Z,96721.17
2019-04-22T01:08:53.720Z,96722.66
2019-04-22T01:11:24.937Z,96716.50
2019-04-22T01:13:49.526Z,96718.44
2019-04-22T01:16:24.994Z,96716.25
2019-04-22T01:18:53.834Z,96716.08
2019-04-22T01:21:28.792Z,96708.28
2019-04-22T01:23:59.461Z,96708.00
2019-04-22T01:26:25.544Z,96709.34
2019-04-22T01:28:59.628Z,96712.49
2019-04-22T01:31:22.039Z,96703.41
2019-04-22T01:34:05.462Z,96700.56
2019-04-22T01:36:41.493Z,96693.61
2019-04-22T01:39:18.090Z,96689.12
2019-04-22T01:41:55.121Z,96695.58
2019-04-22T01:46:50.725Z,96689.95
2019-04-22T01:49:25.685Z,96684.94
2019-04-22T01:51:58.747Z,96687.59
2019-04-22T01:57:01.691Z,96680.97
2019-04-22T01:59:19.781Z,96682.78
2019-04-22T02:02:05.946Z,96678.98
2019-04-22T02:04:39.758Z,96672.98
2019-04-22T02:09:38.340Z,96670.36
2019-04-22T02:14:39.498Z,96653.23
2019-04-22T02:17:21.030Z,96650.37
2019-04-22T02:19:45.631Z,96653.86
2019-04-22T02:22:19.029Z,96647.62
2019-04-22T02:24:47.073Z,96642.96
2019-04-22T02:27:17.733Z,96642.30
2019-04-22T02:29:50.368Z,96639.44
2019-04-22T02:32:42.256Z,96637.97
2019-04-22T02:37:23.444Z,96623.02
2019-04-22T02:40:27.727Z,96624.73
2019-04-22T02:44:56.131Z,96614.07
2019-04-22T02:47:42.226Z,96609.53
2019-04-22T02:50:08.807Z,96605.43
2019-04-22T02:52:37.586Z,96603.61
2019-04-22T02:57:42.576Z,96593.98
2019-04-22T03:00:18.381Z,96594.37
2019-04-22T03:07:42.459Z,96581.59
2019-04-22T03:10:43.864Z,96577.38
2019-04-22T03:12:48.966Z,96575.91
2019-04-22T03:15:16.571Z,96577.70
2019-04-22T03:17:49.477Z,96568.84
2019-04-22T03:20:22.208Z,96563.41
2019-04-22T03:22:55.397Z,96562.77
2019-04-22T03:27:44.101Z,96552.28
2019-04-22T03:30:50.712Z,96542.80
2019-04-22T03:37:56.257Z,96526.41
2019-04-22T03:43:09.217Z,96531.98
2019-04-22T03:45:44.231Z,96526.95
2019-04-22T03:48:23.968Z,96534.40
2019-04-22T03:51:01.898Z,96527.45
2019-04-22T03:53:15.429Z,96521.91
2019-04-22T03:55:43.443Z,96522.77
2019-04-22T03:58:28.609Z,96518.67
2019-04-22T04:03:21.087Z,96519.59
2019-04-22T04:05:52.525Z,96523.19
2019-04-22T04:08:26.811Z,96520.73
2019-04-22T04:10:53.076Z,96514.81
2019-04-22T04:13:41.662Z,96509.54
2019-04-22T04:15:46.631Z,96506.54
2019-04-22T04:18:30.885Z,96504.70
2019-04-22T04:21:14.536Z,96507.39
2019-04-22T04:23:38.331Z,96508.73
2019-04-22T04:26:02.357Z,96502.33
2019-04-22T04:31:09.641Z,96514.26
2019-04-22T04:33:38.149Z,96510.28
2019-04-22T04:41:22.550Z,96498.86
2019-04-22T04:43:50.522Z,96498.20
2019-04-22T04:46:32.255Z,96504.17
2019-04-22T04:51:33.662Z,96502.50
2019-04-22T04:53:53.127Z,96501.02
2019-04-22T04:56:26.965Z,96502.83
2019-04-22T05:01:27.114Z,96512.80
2019-04-22T05:03:57.307Z,96505.35
2019-04-22T05:06:46.056Z,96497.55
2019-04-22T05:09:14.781Z,96496.69
2019-04-22T05:11:40.596Z,96491.02
2019-04-22T05:14:05.540Z,96494.30
2019-04-22T05:16:34.589Z,96492.13
2019-04-22T05:18:57.188Z,96489.45
2019-04-22T05:21:21.804Z,96483.07
2019-04-22T05:24:05.515Z,96485.14
2019-04-22T05:26:34.210Z,96480.57
2019-04-22T05:29:05.491Z,96482.56
2019-04-22T05:34:05.509Z,96477.70
2019-04-22T05:36:34.487Z,96473.82
2019-04-22T05:39:09.142Z,96473.28
2019-04-22T05:41:36.294Z,96471.35
2019-04-22T05:44:08.610Z,96466.39
2019-04-22T05:46:35.873Z,96464.78
2019-04-22T05:49:14.629Z,96457.71
2019-04-22T05:51:43.641Z,96451.78
2019-04-22T05:54:19.000Z,96445.17
2019-04-22T05:56:39.533Z,96444.29
2019-04-22T05:59:20.745Z,96444.43
2019-04-22T06:04:14.719Z,96429.70
2019-04-22T06:06:46.779Z,96424.58
2019-04-22T06:09:24.854Z,96424.78
2019-04-22T06:11:54.438Z,96426.81
2019-04-22T06:14:24.839Z,96420.96
2019-04-22T06:17:04.023Z,96418.97
2019-04-22T06:19:31.286Z,96409.44
2019-04-22T06:22:16.957Z,96414.03
2019-04-22T06:24:39.521Z,96406.21
2019-04-22T06:27:15.958Z,96404.95
2019-04-22T06:29:38.266Z,96406.41
2019-04-22T06:34:42.128Z,96399.41
2019-04-22T06:37:17.485Z,96393.81
2019-04-22T06:39:46.734Z,96398.36
2019-04-22T06:42:21.797Z,96393.91
2019-04-22T06:44:53.425Z,96388.21
2019-04-22T06:47:38.534Z,96396.23
2019-04-22T06:49:49.273Z,96394.59
2019-04-22T06:54:54.908Z,96385.95
2019-04-22T06:57:25.530Z,96385.56
2019-04-22T07:00:02.465Z,96383.47
2019-04-22T07:02:33.797Z,96376.89
2019-04-22T07:05:02.200Z,96374.88
2019-04-22T07:07:34.517Z,96375.48
2019-04-22T07:10:11.680Z,96373.16
2019-04-22T07:15:11.334Z,96374.70
2019-04-22T07:20:04.022Z,96360.26
2019-04-22T07:22:43.588Z,96359.45
2019-04-22T07:25:10.301Z,96359.55
2019-04-22T07:27:44.121Z,96348.77
2019-04-22T07:30:18.865Z,96345.06
2019-04-22T07:33:04.771Z,96348.13
2019-04-22T07:35:26.456Z,96351.08
2019-04-22T07:37:48.324Z,96350.28
2019-04-22T07:40:17.255Z,96341.80
2019-04-22T07:42:49.442Z,96344.94
2019-04-22T07:45:25.066Z,96344.49
2019-04-22T07:47:52.181Z,96337.38
2019-04-22T07:50:39.312Z,96336.31
2019-04-22T07:52:51.441Z,96332.95
2019-04-22T07:55:27.347Z,96327.86
2019-04-22T07:58:00.768Z,96328.20
2019-04-22T08:00:29.719Z,96321.06
2019-04-22T08:03:06.684Z,96316.62
2019-04-22T08:05:45.971Z,96311.40
2019-04-22T08:08:13.182Z,96314.80
2019-04-22T08:10:43.094Z,96311.92
2019-04-22T08:13:11.748Z,96314.02
2019-04-22T08:15:47.054Z,96308.53
2019-04-22T08:18:17.469Z,96313.11
2019-04-22T08:20:47.179Z,96312.41
2019-04-22T08:23:24.528Z,96306.54
2019-04-22T08:26:05.548Z,96309.95
2019-04-22T08:28:26.597Z,96306.23
2019-04-22T08:33:29.473Z,96294.09
2019-04-22T08:36:10.801Z,96295.36
2019-04-22T08:38:41.525Z,96291.17
2019-04-22T08:49:03.974Z,96280.34
2019-04-22T08:56:37.596Z,96276.69
2019-04-22T08:59:11.051Z,96273.73
2019-04-22T09:01:35.954Z,96277.84
2019-04-22T09:07:02.429Z,96265.76
2019-04-22T09:14:16.632Z,96260.94
2019-04-22T09:16:42.640Z,96261.26
2019-04-22T09:19:28.554Z,96261.51
2019-04-22T09:24:21.355Z,96258.48
2019-04-22T09:26:49.188Z,96252.78
2019-04-22T09:32:00.294Z,96244.66
2019-04-22T09:34:30.395Z,96247.18
2019-04-22T09:36:59.432Z,96241.71
2019-04-22T09:39:30.317Z,96239.27
2019-04-22T09:41:59.775Z,96236.55
2019-04-22T09:44:34.760Z,96235.97
2019-04-22T09:47:00.429Z,96226.37
2019-04-22T09:49:42.935Z,96220.04
2019-04-22T09:52:08.037Z,96216.09
2019-04-22T09:57:10.229Z,96213.08
2019-04-22T09:59:48.492Z,96208.48
2019-04-22T10:04:39.890Z,96193.80
2019-04-22T10:07:15.330Z,96202.23
2019-04-22T10:09:59.731Z,96196.22
2019-04-22T10:12:19.246Z,96196.78
2019-04-22T10:14:49.455Z,96190.00
2019-04-22T10:17:17.553Z,96188.92
2019-04-22T10:19:51.504Z,96181.02
2019-04-22T10:22:29.101Z,96175.31
2019-04-22T10:24:53.580Z,96173.41
2019-04-22T10:27:21.337Z,96174.25
2019-04-22T10:32:25.211Z,96161.19
2019-04-22T10:34:40.864Z,96158.19
2019-04-22T10:37:11.266Z,96151.16
2019-04-22T10:39:45.809Z,96145.19
2019-04-22T10:42:11.232Z,96146.55
2019-04-22T10:44:41.440Z,96148.97
2019-04-22T10:47:11.878Z,96141.39
2019-04-22T10:49:42.607Z,96143.84
2019-04-22T10:52:12.943Z,96136.75
2019-04-22T10:54:43.258Z,96137.02
2019-04-22T10:57:13.968Z,96140.03
2019-04-22T10:59:44.906Z,96131.34
2019-04-22T11:02:14.554Z,96135.67
2019-04-22T11:04:44.181Z,96127.80
2019-04-22T11:07:15.428Z,96126.44
2019-04-22T11:09:51.698Z,96118.81
2019-04-22T11:12:20.689Z,96126.72
2019-04-22T11:14:48.069Z,96125.09
2019-04-22T11:17:19.541Z,96128.62
2019-04-22T11:19:49.946Z,96128.61
2019-04-22T11:22:24.500Z,96129.16
2019-04-22T11:24:51.152Z,96123.66
2019-04-22T11:27:21.183Z,96116.11
2019-04-22T11:29:50.873Z,96112.04
2019-04-22T11:32:20.611Z,96107.64
2019-04-22T11:34:51.209Z,96103.02
2019-04-22T11:37:21.061Z,96097.67
2019-04-22T11:40:04.341Z,96101.59
2019-04-22T11:42:23.871Z,96101.94
2019-04-22T11:44:55.130Z,96100.63
2019-04-22T11:47:25.539Z,96103.06
2019-04-22T11:49:55.393Z,96102.23
2019-04-22T11:52:25.131Z,96106.62
2019-04-22T11:54:56.844Z,96100.01
2019-04-22T11:57:26.852Z,96104.96
2019-04-22T11:59:56.639Z,96089.69
2019-04-22T12:02:29.192Z,96096.50
2019-04-22T12:04:58.879Z,96088.58
2019-04-22T12:07:32.698Z,96091.40
2019-04-22T12:10:13.264Z,96094.30
2019-04-22T12:12:32.031Z,96092.78
2019-04-22T12:15:01.731Z,96095.94
2019-04-22T12:17:32.029Z,96090.95
2019-04-22T12:20:04.767Z,96096.34
2019-04-22T12:22:33.910Z,96093.73
2019-04-22T12:25:08.182Z,96096.17
2019-04-22T12:27:41.203Z,96082.70
2019-04-22T12:30:19.573Z,96081.67
2019-04-22T12:32:50.494Z,96082.58
2019-04-22T12:35:21.130Z,96070.20
2019-04-22T12:37:55.534Z,96066.45
2019-04-22T12:40:33.825Z,96060.39
2019-04-22T12:42:55.481Z,96053.37
2019-04-22T12:45:26.674Z,96059.73
2019-04-22T12:47:56.269Z,96056.77
2019-04-22T12:50:31.539Z,96045.58
2019-04-22T12:53:04.858Z,96051.56
2019-04-22T12:55:30.326Z,96045.13
2019-04-22T12:58:01.311Z,96039.41
2019-04-22T13:00:32.279Z,96029.65
2019-04-22T13:03:03.159Z,96034.78
2019-04-22T13:05:33.398Z,96029.84
2019-04-22T13:08:03.390Z,96024.74
2019-04-22T13:10:41.618Z,96025.62
2019-04-22T13:13:05.090Z,96022.30
2019-04-22T13:15:35.156Z,96024.00
2019-04-22T13:18:13.564Z,96024.80
2019-04-22T13:20:36.561Z,96027.94
2019-04-22T13:23:07.562Z,96025.45
2019-04-22T13:25:38.785Z,96018.65
2019-04-22T13:28:09.369Z,96017.14
2019-04-22T13:30:40.815Z,96014.31
2019-04-22T13:33:10.841Z,96009.47
2019-04-22T13:35:41.583Z,96006.97
2019-04-22T13:38:11.320Z,96002.64
2019-04-22T13:40:57.834Z,95997.33
2019-04-22T13:43:16.771Z,95994.92
2019-04-22T13:45:47.682Z,95995.49
2019-04-22T13:48:38.669Z,95997.86
2019-04-22T13:51:25.726Z,96001.05
2019-04-22T13:54:24.326Z,95996.60
2019-04-22T13:56:15.378Z,95991.18
2019-04-22T13:58:38.237Z,95991.83
2019-04-22T14:00:58.456Z,95989.75
2019-04-22T14:03:46.895Z,95986.80
2019-04-22T14:06:16.725Z,95986.74
2019-04-22T14:08:47.182Z,95982.42
2019-04-22T14:11:30.063Z,95981.33
2019-04-22T14:13:48.324Z,95980.42
2019-04-22T14:16:19.615Z,95976.40
2019-04-22T14:18:49.770Z,95983.01
2019-04-22T14:21:20.850Z,95978.05
2019-04-22T14:23:50.978Z,95977.02
2019-04-22T14:26:20.751Z,95965.31
2019-04-22T14:28:50.380Z,95968.80
2019-04-22T14:31:20.381Z,95968.63
2019-04-22T14:33:54.860Z,95965.98
2019-04-22T14:36:21.633Z,95973.66
2019-04-22T14:38:52.305Z,95971.03
2019-04-22T14:41:40.330Z,95972.53
2019-04-22T14:45:05.379Z,95967.34
2019-04-22T14:46:59.704Z,95963.91
2019-04-22T14:49:25.262Z,95966.69
2019-04-22T14:51:49.808Z,95952.40
2019-04-22T14:54:13.943Z,95949.93
2019-04-22T14:56:30.572Z,95949.13
2019-04-22T14:59:00.818Z,95948.65
2019-04-22T15:01:30.811Z,95950.70
2019-04-22T15:04:00.769Z,95940.92
2019-04-22T15:06:31.816Z,95945.63
2019-04-22T15:09:01.896Z,95934.08
2019-04-22T15:11:43.859Z,95937.53
2019-04-22T15:14:03.318Z,95936.27
2019-04-22T15:16:36.249Z,95938.01
2019-04-22T15:19:17.902Z,95943.72
2019-04-22T15:21:47.611Z,95942.02
2019-04-22T15:24:25.134Z,95937.61
2019-04-22T15:26:58.560Z,95937.93
2019-04-22T15:29:29.663Z,95936.94
2019-04-22T15:32:00.014Z,95935.30
2019-04-22T15:34:30.550Z,95931.99
2019-04-22T15:37:00.451Z,95936.66
2019-04-22T15:39:31.360Z,95934.44
2019-04-22T15:42:11.638Z,95933.95
2019-04-22T15:44:33.880Z,95931.45
2019-04-22T15:47:05.031Z,95924.54
2019-04-22T15:49:35.751Z,95920.23
2019-04-22T15:52:07.779Z,95918.57
2019-04-22T15:54:37.695Z,95921.03
2019-04-22T15:57:08.749Z,95920.94
2019-04-22T15:59:55.122Z,95916.03
2019-04-22T16:02:10.490Z,95913.17
2019-04-22T16:04:41.379Z,95909.38
2019-04-22T16:07:11.012Z,95908.41
2019-04-22T16:09:41.646Z,95911.14
2019-04-22T16:12:19.124Z,95915.19
2019-04-22T16:14:47.767Z,95915.47
2019-04-22T16:17:14.790Z,95918.46
2019-04-22T16:19:45.169Z,95914.34
2019-04-22T16:22:19.047Z,95916.27
2019-04-22T16:24:52.179Z,95921.42
2019-04-22T16:27:24.676Z,95919.58
2019-04-22T16:29:55.120Z,95921.27
2019-04-22T16:32:27.613Z,95924.59
2019-04-22T16:34:58.720Z,95921.34
2019-04-22T16:37:28.700Z,95921.92
2019-04-22T16:39:58.939Z,95924.56
2019-04-22T16:42:37.721Z,95924.05
2019-04-22T16:45:01.697Z,95926.80
2019-04-22T16:47:31.589Z,95929.84
2019-04-22T16:50:01.833Z,95935.45
2019-04-22T16:52:32.192Z,95933.78
2019-04-22T16:55:03.436Z,95933.81
2019-04-22T16:57:33.728Z,95932.09
2019-04-22T17:00:06.799Z,95932.34
2019-04-22T17:02:41.223Z,95934.62
2019-04-22T17:05:15.863Z,95933.72
2019-04-22T17:07:45.722Z,95930.30
2019-04-22T17:10:17.651Z,95933.63
2019-04-22T17:12:57.298Z,95935.50
2019-04-22T17:15:20.709Z,95939.33
2019-04-22T17:17:51.598Z,95939.88
2019-04-22T17:20:22.960Z,95936.38
2019-04-22T17:22:53.488Z,95942.12
2019-04-22T17:25:24.605Z,95945.08
2019-04-22T17:27:55.229Z,95950.83
2019-04-22T17:30:26.434Z,95952.19
2019-04-22T17:32:56.661Z,95954.34
2019-04-22T17:35:28.257Z,95954.60
2019-04-22T17:38:09.238Z,95959.75
2019-04-22T17:40:49.072Z,95956.50
2019-04-22T17:43:36.042Z,95960.02
2019-04-22T17:46:04.473Z,95955.38
2019-04-22T17:48:42.019Z,95958.62
2019-04-22T17:51:25.699Z,95966.75
2019-04-22T17:53:53.467Z,95965.62
2019-04-22T17:56:21.633Z,95962.34
2019-04-22T17:58:51.227Z,95957.48
2019-04-22T18:01:28.055Z,95960.41
2019-04-22T18:03:43.610Z,95962.81
2019-04-22T18:06:17.559Z,95969.59
2019-04-22T18:08:54.909Z,95977.13
2019-04-22T18:11:33.459Z,95981.94
2019-04-22T18:14:16.165Z,95983.27
2019-04-22T18:16:37.274Z,95986.06
2019-04-22T18:19:07.505Z,95988.52
2019-04-22T18:21:30.346Z,95985.54
2019-04-22T18:23:55.358Z,95997.13
2019-04-22T18:26:38.947Z,95991.81
2019-04-22T18:29:09.974Z,95999.46
2019-04-22T18:31:32.714Z,96011.85
2019-04-22T18:34:08.213Z,96012.64
2019-04-22T18:36:40.395Z,96003.78
2019-04-22T18:39:37.021Z,96008.09
2019-04-22T18:41:47.123Z,96015.63
2019-04-22T18:44:22.626Z,96010.80
2019-04-22T18:46:47.815Z,96018.41
2019-04-22T18:49:17.283Z,96020.53
2019-04-22T18:51:51.367Z,96029.06
2019-04-22T18:54:36.206Z,96037.20
2019-04-22T18:57:08.348Z,96034.02
2019-04-22T18:59:26.275Z,96041.98
2019-04-22T19:01:52.426Z,96039.25
2019-04-22T19:04:27.413Z,96039.58
2019-04-22T19:07:19.881Z,96047.16
2019-04-22T19:09:56.216Z,96042.95
2019-04-22T19:15:01.777Z,96059.11
2019-04-22T19:17:32.770Z,96059.28
2019-04-22T19:19:56.112Z,96065.47
2019-04-22T19:22:26.601Z,96068.31
2019-04-22T19:24:52.951Z,96076.03
2019-04-22T19:27:26.858Z,96077.73
2019-04-22T19:30:01.484Z,96078.88
2019-04-22T19:32:33.579Z,96081.78
2019-04-22T19:34:56.932Z,96093.33
2019-04-22T19:37:28.709Z,96096.19
2019-04-22T19:40:10.179Z,96097.14
2019-04-22T19:42:38.729Z,96103.96
2019-04-22T19:45:09.052Z,96106.92
2019-04-22T19:47:58.217Z,96106.36
2019-04-22T19:50:12.916Z,96108.08
2019-04-22T19:52:40.244Z,96115.14
2019-04-22T19:55:15.713Z,96114.97
2019-04-22T19:57:41.942Z,96120.52
2019-04-22T20:00:11.598Z,96122.00
2019-04-22T20:03:14.848Z,96122.42
2019-04-22T20:05:37.158Z,96129.67
2019-04-22T20:08:11.056Z,96125.34
2019-04-22T20:10:40.228Z,96128.02
2019-04-22T20:13:15.055Z,96134.46
2019-04-22T20:15:37.235Z,96136.71
2019-04-22T20:18:35.712Z,96132.45
2019-04-22T20:20:46.571Z,96135.84
2019-04-22T20:23:14.270Z,96132.41
2019-04-22T20:25:46.361Z,96136.33
2019-04-22T20:28:19.955Z,96135.56
2019-04-22T20:30:50.652Z,96140.83
2019-04-22T20:33:29.216Z,96145.57
2019-04-22T20:36:01.471Z,96154.30
2019-04-22T20:38:28.167Z,96152.99
2019-04-22T20:40:55.036Z,96158.39
2019-04-22T20:43:38.613Z,96153.75
2019-04-22T20:46:05.885Z,96154.05
2019-04-22T20:48:37.621Z,96154.13
2019-04-22T20:51:04.287Z,96156.75
2019-04-22T20:53:37.483Z,96161.55
2019-04-22T20:56:04.303Z,96164.31
2019-04-22T20:58:38.808Z,96164.39
2019-04-22T21:00:59.318Z,96161.84
2019-04-22T21:03:31.951Z,96161.01
2019-04-22T21:06:08.720Z,96164.05
2019-04-22T21:08:42.066Z,96174.64
2019-04-22T21:11:12.713Z,96175.80
2019-04-22T21:13:42.076Z,96177.86
2019-04-22T21:16:21.640Z,96180.41
2019-04-22T21:18:44.667Z,96180.45
2019-04-22T21:21:19.598Z,96184.05
2019-04-22T21:23:42.420Z,96188.66
2019-04-22T21:26:20.723Z,96185.68
2019-04-22T21:28:53.476Z,96190.66
2019-04-22T21:31:29.639Z,96190.74
2019-04-22T21:34:04.160Z,96186.46
2019-04-22T21:36:36.664Z,96184.08
2019-04-22T21:38:59.122Z,96186.20
2019-04-22T21:41:30.404Z,96184.97
2019-04-22T21:43:58.443Z,96183.42
2019-04-22T21:46:33.486Z,96182.41
2019-04-22T21:49:06.053Z,96186.75
2019-04-22T21:56:57.261Z,96192.75
2019-04-22T21:59:15.545Z,96200.95
2019-04-22T22:01:52.888Z,96203.43
2019-04-22T22:04:21.974Z,96200.64
2019-04-22T22:06:42.477Z,96198.59
2019-04-22T22:09:25.169Z,96198.92
2019-04-22T22:11:55.443Z,96196.07
2019-04-22T22:14:26.199Z,96193.20
2019-04-22T22:16:53.050Z,96193.39
2019-04-22T22:19:28.356Z,96199.56
2019-04-22T22:22:05.994Z,96190.52
2019-04-22T22:24:41.762Z,96190.91
2019-04-22T22:27:06.812Z,96191.73
2019-04-22T22:29:49.353Z,96186.56
2019-04-22T22:32:13.299Z,96185.55
2019-04-22T22:34:43.154Z,96177.68
2019-04-22T22:37:03.634Z,96188.72
2019-04-22T22:39:35.390Z,96183.57
2019-04-22T22:41:54.127Z,96180.27
2019-04-22T22:44:30.245Z,96183.64
2019-04-22T22:47:16.733Z,96181.39
2019-04-22T22:49:50.357Z,96185.20
2019-04-22T22:54:53.858Z,96186.39
2019-04-22T22:57:29.053Z,96180.01
2019-04-22T22:59:51.286Z,96186.08
2019-04-22T23:02:27.125Z,96191.61
2019-04-22T23:04:57.915Z,96188.27
2019-04-22T23:07:28.929Z,96191.66
2019-04-22T23:10:04.633Z,96186.80
2019-04-22T23:12:44.102Z,96190.21
2019-04-22T23:14:59.039Z,96184.65
2019-04-22T23:17:19.920Z,96190.44
2019-04-22T23:19:49.738Z,96187.16
2019-04-22T23:22:25.236Z,96188.49
2019-04-22T23:25:07.721Z,96184.91
2019-04-22T23:27:46.561Z,96188.69
2019-04-22T23:30:25.201Z,96191.44
2019-04-22T23:33:06.314Z,96190.13
2019-04-22T23:35:36.737Z,96193.08
2019-04-22T23:38:06.313Z,96188.80
2019-04-22T23:40:45.653Z,96186.58
2019-04-22T23:43:22.231Z,96186.85
2019-04-22T23:45:53.304Z,96190.41
2019-04-22T23:48:17.069Z,96191.39
2019-04-22T23:50:50.955Z,96192.08
2019-04-22T23:53:45.091Z,96189.33
2019-04-22T23:56:03.159Z,96192.36
2019-04-22T23:58:47.597Z,96193.49
